Winston Salem, NC (27107)

1:16 AM EST on February 28, 2015 (GMT -0500)
5 Points | Change Station
CLOSE
Current Station
Personal Weather Station
Location: Winston-Salem, NC
Elevation: 909 ft
Nearby Weather Stations
Active Advisory: Winter Weather Advisory

Elev 909 ft 36.07 °N, 80.16 °W | Updated 4 minutes ago

Clear
Clear
26.6 °F
Feels Like 22 °F
N
4.2
Wind Variable Wind from NNW

Today
High -- | Low -- °F
--% Chance of Precip.
Yesterday
High -- | Low -- °F
Precip. -- in
6:52 AM 6:14 PM
Waxing Gibbous, 75% visible
Pressure 30.58 in
Visibility 10.0 miles
Clouds Clear
Windchill 22 °F
Dew Point 15 °F
Humidity 61%
Rainfall 0.00 in
Snow Depth Not available.
UV 0 out of 12
Pollen 4.90 out of 12
Air Quality Not available.
Flu Activity Not available.
METAR KINT 280554Z 05006KT 10SM CLR M02/M12 A3056 RMK AO2 SLP356 T10221117 10028 21022 51015

More Conditions Fewer Conditions

Pressure 30.58 in
Visibility 10.0 miles
Clouds Clear
Windchill 22 °F
Dew Point 15 °F
Humidity 61%
Rainfall 0.00 in
Snow Depth Not available.
UV 0 out of 12
Pollen 4.90 out of 12
Air Quality Not available.
Flu Activity Not available.
METAR KINT 280554Z 05006KT 10SM CLR M02/M12 A3056 RMK AO2 SLP356 T10221117 10028 21022 51015

More Conditions Fewer Conditions

10-Day Weather Forecast

Almanac

Astronomy

Feb. 28, 2015 Rise Set
Actual Time
Civil Twilight
Nautical Twilight
Astronomical Twilight
Moon
Length of Visible Light
Length of Day
Tomorrow will be .
, % of the Moon is Illuminated

Today's Extremes

State Highs State Lows

Community

WunderPhotos

Upload Photos

1,800,976 photos uploaded!

WunderBlogs® & News

Nearby

Air Quality

  Air Quality AQ Index Pollutant
Not available.

Snow Depth

Station Depth Elevation

Earthquake Activity

City Distance Mag. Time & Date
Minimum magnitude displayed is 2.5.

Coastal Water Temperatures

Place Temperature

Nearby Weather Stations

Winter Weather Advisory
Statement as of 2:59 PM EST on February 27, 2015

... Winter Weather Advisory in effect from 9 PM this evening to
10 am EST Saturday...

The National Weather Service in Raleigh has issued a Winter
Weather Advisory for black ice... which is in effect from 9 PM
this evening to 10 am EST Saturday.

* Locations... the northern Piedmont and northern coastal plain
including The Triad and Triangle.

* Hazard types... areas of black ice across northern portions of
North Carolina.

* Timing... this evening through mid-morning on Saturday.

* Impacts... freezing of meltwater will create areas of black
ice. The refreezing of the ice and snow pack will result in
tricky travel and walking conditions. Be extremely cautions on
area roads... streets... sidewalks... parking lots... steps
and even on interstates... especially the bridges...
overpasses... and ramps.

* Temperatures... in the mid 20s.

Precautionary/preparedness actions...

If you must travel tonight and Saturday morning... stay alert for
black ice... slow down... and leave plenty of following distance.